createdAt,value
2018-12-03T00:01:34.738Z,49.80
2018-12-03T00:04:33.947Z,50.30
2018-12-03T00:07:02.788Z,49.90
2018-12-03T00:09:31.494Z,49.90
2018-12-03T00:12:00.164Z,50.40
2018-12-03T00:14:28.864Z,50.10
2018-12-03T00:16:57.612Z,50.20
2018-12-03T00:19:26.316Z,50.70
2018-12-03T00:21:55.076Z,50.20
2018-12-03T00:24:23.857Z,50.80
2018-12-03T00:26:52.615Z,50.30
2018-12-03T00:29:21.394Z,50.90
2018-12-03T00:31:50.165Z,50.50
2018-12-03T00:34:18.978Z,50.40
2018-12-03T00:36:47.696Z,51.00
2018-12-03T00:39:16.467Z,50.50
2018-12-03T00:41:45.297Z,51.10
2018-12-03T00:44:14.062Z,50.60
2018-12-03T00:46:42.763Z,51.20
2018-12-03T00:49:11.432Z,51.10
2018-12-03T00:51:40.144Z,51.10
2018-12-03T00:54:08.835Z,50.50
2018-12-03T00:56:37.526Z,50.50
2018-12-03T00:59:06.646Z,50.50
2018-12-03T01:01:36.319Z,50.50
2018-12-03T01:04:05.545Z,50.50
2018-12-03T01:06:34.326Z,50.60
2018-12-03T01:09:03.006Z,50.60
2018-12-03T01:11:31.740Z,50.60
2018-12-03T01:14:00.419Z,50.60
2018-12-03T01:16:29.219Z,50.60
2018-12-03T01:18:57.909Z,50.60
2018-12-03T01:21:26.635Z,51.20
2018-12-03T01:23:55.326Z,50.70
2018-12-03T01:26:24.033Z,50.70
2018-12-03T01:28:52.708Z,50.80
2018-12-03T01:31:21.445Z,50.80
2018-12-03T01:33:50.106Z,50.80
2018-12-03T01:36:18.855Z,51.30
2018-12-03T01:41:15.842Z,50.90
2018-12-03T01:43:44.544Z,51.40
2018-12-03T01:46:13.195Z,50.90
2018-12-03T01:48:41.902Z,51.50
2018-12-03T01:51:10.543Z,51.50
2018-12-03T01:53:39.206Z,51.00
2018-12-03T01:56:07.915Z,51.00
2018-12-03T01:58:36.585Z,51.00
2018-12-03T02:01:05.361Z,51.00
2018-12-03T02:03:34.055Z,51.60
2018-12-03T02:06:02.766Z,51.10
2018-12-03T02:08:31.464Z,51.10
2018-12-03T02:11:00.679Z,51.60
2018-12-03T02:13:29.354Z,51.10
2018-12-03T02:15:58.016Z,51.10
2018-12-03T02:18:27.071Z,51.60
2018-12-03T02:20:56.413Z,51.70
2018-12-03T02:23:25.484Z,51.60
2018-12-03T02:25:54.484Z,51.10
2018-12-03T02:28:23.166Z,51.10
2018-12-03T02:30:51.823Z,51.20
2018-12-03T02:33:20.555Z,51.80
2018-12-03T02:35:49.286Z,51.20
2018-12-03T02:38:17.991Z,51.10
2018-12-03T02:40:46.671Z,51.20
2018-12-03T02:43:15.309Z,51.20
2018-12-03T02:45:43.958Z,51.80
2018-12-03T02:48:12.697Z,51.50
2018-12-03T02:50:41.414Z,51.60
2018-12-03T02:53:10.141Z,51.50
2018-12-03T02:55:38.854Z,51.50
2018-12-03T02:58:07.500Z,51.60
2018-12-03T03:00:39.855Z,51.60
2018-12-03T03:03:08.633Z,51.60
2018-12-03T03:05:37.281Z,51.60
2018-12-03T03:08:06.406Z,51.60
2018-12-03T03:10:35.178Z,52.80
2018-12-03T03:13:03.860Z,51.60
2018-12-03T03:15:32.635Z,51.60
2018-12-03T03:18:01.310Z,51.60
2018-12-03T03:20:30.001Z,51.60
2018-12-03T03:22:58.693Z,52.20
2018-12-03T03:25:27.978Z,51.60
2018-12-03T03:27:57.225Z,51.60
2018-12-03T03:30:26.464Z,51.60
2018-12-03T03:32:55.164Z,51.60
2018-12-03T03:35:23.832Z,52.20
2018-12-03T03:37:52.505Z,52.20
2018-12-03T03:40:21.449Z,52.20
2018-12-03T03:42:50.180Z,51.70
2018-12-03T03:45:21.670Z,51.60
2018-12-03T03:47:50.396Z,51.60
2018-12-03T03:50:19.050Z,51.70
2018-12-03T03:52:47.749Z,51.60
2018-12-03T03:55:16.448Z,51.70
2018-12-03T03:57:45.161Z,52.20
2018-12-03T04:00:14.835Z,52.20
2018-12-03T04:02:43.490Z,51.70
2018-12-03T04:05:13.330Z,51.70
2018-12-03T04:07:42.954Z,51.70
2018-12-03T04:10:12.620Z,52.30
2018-12-03T04:12:41.969Z,52.30
2018-12-03T04:15:12.498Z,51.80
2018-12-03T04:17:41.238Z,51.80
2018-12-03T04:20:16.344Z,51.80
2018-12-03T04:22:46.329Z,51.90
2018-12-03T04:25:15.060Z,51.80
2018-12-03T04:27:43.760Z,51.80
2018-12-03T04:30:15.641Z,51.90
2018-12-03T04:35:13.330Z,51.90
2018-12-03T04:37:42.633Z,51.90
2018-12-03T04:40:12.540Z,51.90
2018-12-03T04:42:41.254Z,52.40
2018-12-03T04:45:11.196Z,51.90
2018-12-03T04:47:39.869Z,52.50
2018-12-03T04:50:12.291Z,52.00
2018-12-03T04:52:41.057Z,52.00
2018-12-03T04:55:10.176Z,52.00
2018-12-03T04:57:38.882Z,52.00
2018-12-03T05:02:43.161Z,52.00
2018-12-03T05:05:11.849Z,52.00
2018-12-03T05:07:40.501Z,52.00
2018-12-03T05:10:11.538Z,52.00
2018-12-03T05:12:40.194Z,52.50
2018-12-03T05:15:10.195Z,52.00
2018-12-03T05:20:09.327Z,52.00
2018-12-03T05:22:38.260Z,52.60
2018-12-03T05:25:08.539Z,52.60
2018-12-03T05:27:37.245Z,52.60
2018-12-03T05:30:10.240Z,52.10
2018-12-03T05:32:39.112Z,52.10
2018-12-03T05:35:09.942Z,52.10
2018-12-03T05:37:38.829Z,52.50
2018-12-03T05:40:10.881Z,52.40
2018-12-03T05:42:39.535Z,52.50
2018-12-03T05:45:09.081Z,52.40
2018-12-03T05:47:37.735Z,52.10
2018-12-03T05:50:10.166Z,52.20
2018-12-03T05:52:38.935Z,52.10
2018-12-03T05:55:11.856Z,52.40
2018-12-03T05:57:42.256Z,53.00
2018-12-03T06:00:16.969Z,52.30
2018-12-03T06:02:45.705Z,52.80
2018-12-03T06:05:21.894Z,53.00
2018-12-03T06:07:52.151Z,53.10
2018-12-03T06:10:21.813Z,52.70
2018-12-03T06:15:19.987Z,52.70
2018-12-03T06:17:49.811Z,52.70
2018-12-03T06:20:19.406Z,52.70
2018-12-03T06:22:48.897Z,52.70
2018-12-03T06:25:20.814Z,52.70
2018-12-03T06:27:49.514Z,52.60
2018-12-03T06:30:19.847Z,52.60
2018-12-03T06:32:48.519Z,52.60
2018-12-03T06:35:17.828Z,52.60
2018-12-03T06:37:46.702Z,52.60
2018-12-03T06:40:18.627Z,52.60
2018-12-03T06:42:47.360Z,52.50
2018-12-03T06:45:17.469Z,52.50
2018-12-03T06:47:52.778Z,52.60
2018-12-03T06:50:21.517Z,53.10
2018-12-03T06:52:50.261Z,53.00
2018-12-03T06:55:18.929Z,53.00
2018-12-03T06:57:47.771Z,52.40
2018-12-03T07:00:18.635Z,52.50
2018-12-03T07:02:47.344Z,52.70
2018-12-03T07:05:16.009Z,53.20
2018-12-03T07:07:46.529Z,52.60
2018-12-03T07:10:19.163Z,52.60
2018-12-03T07:12:49.390Z,52.50
2018-12-03T07:15:20.245Z,52.70
2018-12-03T07:17:49.685Z,52.60
2018-12-03T07:20:18.403Z,53.00
2018-12-03T07:22:47.155Z,53.20
2018-12-03T07:25:15.843Z,53.30
2018-12-03T07:27:44.536Z,53.40
2018-12-03T07:30:17.536Z,53.80
2018-12-03T07:32:47.699Z,53.90
2018-12-03T07:35:57.194Z,53.50
2018-12-03T07:38:25.835Z,54.10
2018-12-03T07:43:23.621Z,54.70
2018-12-03T07:45:52.394Z,55.10
2018-12-03T07:48:21.086Z,55.20
2018-12-03T07:50:49.714Z,55.00
2018-12-03T07:53:18.334Z,55.10
2018-12-03T07:55:47.019Z,55.70
2018-12-03T07:58:17.948Z,55.50
2018-12-03T08:00:52.414Z,55.50
2018-12-03T08:03:21.119Z,54.70
2018-12-03T08:05:49.793Z,54.60
2018-12-03T08:08:18.420Z,54.70
2018-12-03T08:10:49.007Z,55.20
2018-12-03T08:13:18.619Z,54.50
2018-12-03T08:15:47.311Z,55.10
2018-12-03T08:18:18.207Z,54.50
2018-12-03T08:20:52.570Z,54.50
2018-12-03T08:23:24.979Z,55.00
2018-12-03T08:25:53.653Z,54.40
2018-12-03T08:28:22.392Z,54.40
2018-12-03T08:30:51.093Z,54.40
2018-12-03T08:33:19.772Z,54.40
2018-12-03T08:35:48.733Z,54.40
2018-12-03T08:38:17.362Z,54.40
2018-12-03T08:40:45.999Z,54.40
2018-12-03T08:43:14.667Z,54.90
2018-12-03T08:45:43.399Z,54.80
2018-12-03T08:48:12.078Z,54.80
2018-12-03T08:50:42.217Z,54.30
2018-12-03T08:53:11.098Z,54.20
2018-12-03T08:55:40.449Z,54.20
2018-12-03T08:58:13.317Z,54.70
2018-12-03T09:00:42.896Z,54.10
2018-12-03T09:03:27.827Z,54.70
2018-12-03T09:05:56.539Z,54.60
2018-12-03T09:08:25.166Z,54.10
2018-12-03T09:10:54.357Z,54.20
2018-12-03T09:13:24.286Z,54.10
2018-12-03T09:15:54.555Z,54.10
2018-12-03T09:18:25.289Z,54.10
2018-12-03T09:20:54.045Z,53.90
2018-12-03T09:23:22.751Z,54.20
2018-12-03T09:25:51.546Z,54.10
2018-12-03T09:28:20.368Z,54.60
2018-12-03T09:30:48.981Z,54.10
2018-12-03T09:33:17.599Z,54.60
2018-12-03T09:35:46.279Z,54.00
2018-12-03T09:38:14.896Z,53.90
2018-12-03T09:40:43.585Z,54.50
2018-12-03T09:43:12.223Z,53.90
2018-12-03T09:45:41.787Z,53.80
2018-12-03T09:48:10.394Z,54.40
2018-12-03T09:50:39.008Z,54.30
2018-12-03T09:53:07.646Z,54.40
2018-12-03T09:55:36.382Z,54.30
2018-12-03T10:00:37.189Z,53.60
2018-12-03T10:03:15.265Z,54.20
2018-12-03T10:05:53.802Z,54.80
2018-12-03T10:08:25.727Z,54.10
2018-12-03T10:10:56.262Z,53.60
2018-12-03T10:13:26.001Z,53.50
2018-12-03T10:15:54.634Z,53.50
2018-12-03T10:18:23.282Z,54.00
2018-12-03T10:20:54.738Z,53.50
2018-12-03T10:23:23.699Z,54.00
2018-12-03T10:25:54.155Z,53.50
2018-12-03T10:28:22.952Z,53.50
2018-12-03T10:30:52.962Z,53.50
2018-12-03T10:33:24.022Z,53.60
2018-12-03T10:35:52.716Z,53.60
2018-12-03T10:38:25.402Z,53.50
2018-12-03T10:40:57.671Z,53.60
2018-12-03T10:43:26.915Z,54.10
2018-12-03T10:45:55.707Z,54.10
2018-12-03T10:48:24.350Z,53.50
2018-12-03T10:50:53.001Z,54.10
2018-12-03T10:55:53.035Z,53.50
2018-12-03T10:58:21.748Z,53.50
2018-12-03T11:01:00.142Z,54.00
2018-12-03T11:03:34.158Z,53.40
2018-12-03T11:06:09.342Z,53.50
2018-12-03T11:08:38.021Z,54.00
2018-12-03T11:11:06.908Z,53.50
2018-12-03T11:13:35.601Z,53.40
2018-12-03T11:16:04.248Z,53.90
2018-12-03T11:18:41.226Z,53.40
2018-12-03T11:21:10.127Z,54.00
2018-12-03T11:23:38.815Z,53.40
2018-12-03T11:26:08.422Z,53.40
2018-12-03T11:28:42.733Z,54.00
2018-12-03T11:31:27.351Z,53.90
2018-12-03T11:33:55.999Z,53.20
2018-12-03T11:36:32.516Z,53.10
2018-12-03T11:39:18.469Z,53.00
2018-12-03T11:41:47.411Z,53.00
2018-12-03T11:44:16.418Z,53.60
2018-12-03T11:46:45.066Z,53.00
2018-12-03T11:49:13.784Z,53.00
2018-12-03T11:51:42.439Z,52.90
2018-12-03T11:54:11.141Z,53.00
2018-12-03T11:56:39.802Z,53.50
2018-12-03T11:59:08.494Z,52.90
2018-12-03T12:01:37.137Z,53.50
2018-12-03T12:04:06.113Z,53.40
2018-12-03T12:06:34.816Z,52.80
2018-12-03T12:09:04.313Z,52.80
2018-12-03T12:11:32.981Z,52.80
2018-12-03T12:14:01.653Z,52.80
2018-12-03T12:16:30.302Z,52.70
2018-12-03T12:18:58.927Z,52.80
2018-12-03T12:21:27.601Z,52.70
2018-12-03T12:23:56.352Z,52.70
2018-12-03T12:26:25.031Z,53.20
2018-12-03T12:28:53.732Z,52.70
2018-12-03T12:31:22.493Z,52.70
2018-12-03T12:33:51.163Z,52.70
2018-12-03T12:36:19.885Z,52.70
2018-12-03T12:38:48.535Z,52.60
2018-12-03T12:41:17.148Z,52.60
2018-12-03T12:43:45.805Z,52.70
2018-12-03T12:46:18.700Z,52.70
2018-12-03T12:48:47.325Z,52.60
2018-12-03T12:51:16.628Z,52.70
2018-12-03T12:53:45.298Z,52.60
2018-12-03T12:56:13.956Z,52.60
2018-12-03T12:58:42.769Z,53.20
2018-12-03T13:01:11.474Z,53.20
2018-12-03T13:03:40.126Z,53.10
2018-12-03T13:08:37.086Z,52.60
2018-12-03T13:11:06.249Z,52.50
2018-12-03T13:13:34.896Z,52.50
2018-12-03T13:16:03.574Z,52.40
2018-12-03T13:18:32.232Z,53.00
2018-12-03T13:21:00.939Z,52.40
2018-12-03T13:23:29.601Z,52.90
2018-12-03T13:25:58.791Z,52.50
2018-12-03T13:28:27.635Z,52.40
2018-12-03T13:30:56.278Z,52.40
2018-12-03T13:33:24.962Z,52.40
2018-12-03T13:35:53.559Z,52.30
2018-12-03T13:38:22.211Z,52.30
2018-12-03T13:40:50.889Z,52.30
2018-12-03T13:43:19.554Z,52.80
2018-12-03T13:45:48.294Z,52.30
2018-12-03T13:48:17.324Z,52.80
2018-12-03T13:50:46.023Z,52.90
2018-12-03T13:53:15.002Z,53.00
2018-12-03T13:55:43.654Z,53.10
2018-12-03T13:58:12.421Z,53.20
2018-12-03T14:00:41.108Z,53.80
2018-12-03T14:03:28.725Z,53.70
2018-12-03T14:06:11.014Z,53.20
2018-12-03T14:08:49.202Z,53.20
2018-12-03T14:11:27.791Z,53.30
2018-12-03T14:14:37.555Z,53.30
2018-12-03T14:17:17.951Z,53.70
2018-12-03T14:19:52.338Z,53.80
2018-12-03T14:22:24.169Z,53.30
2018-12-03T14:24:52.834Z,53.80
2018-12-03T14:27:21.488Z,53.30
2018-12-03T14:29:50.122Z,53.30
2018-12-03T14:32:18.793Z,53.80
2018-12-03T14:34:47.487Z,53.30
2018-12-03T14:37:16.114Z,53.30
2018-12-03T14:39:46.114Z,53.30
2018-12-03T14:42:15.217Z,53.90
2018-12-03T14:44:43.845Z,53.30
2018-12-03T14:47:12.476Z,53.90
2018-12-03T14:49:41.129Z,53.90
2018-12-03T14:52:10.642Z,53.40
2018-12-03T14:54:40.323Z,53.90
2018-12-03T14:57:09.777Z,53.40
2018-12-03T14:59:38.766Z,53.40
2018-12-03T15:02:07.408Z,53.40
2018-12-03T15:04:36.046Z,53.90
2018-12-03T15:07:04.717Z,53.40
2018-12-03T15:09:33.318Z,53.40
2018-12-03T15:12:01.942Z,53.90
2018-12-03T15:14:30.595Z,53.40
2018-12-03T15:16:59.329Z,53.40
2018-12-03T15:19:28.423Z,53.40
2018-12-03T15:21:57.177Z,53.40
2018-12-03T15:24:26.372Z,53.40
2018-12-03T15:26:55.015Z,53.40
2018-12-03T15:29:23.683Z,53.40
2018-12-03T15:31:52.299Z,53.40
2018-12-03T15:34:20.973Z,53.50
2018-12-03T15:36:50.182Z,53.40
2018-12-03T15:39:18.814Z,54.00
2018-12-03T15:41:47.449Z,53.50
2018-12-03T15:44:16.096Z,54.00
2018-12-03T15:46:44.800Z,53.50
2018-12-03T15:49:13.453Z,53.60
2018-12-03T15:51:42.141Z,54.10
2018-12-03T15:54:10.809Z,54.10
2018-12-03T15:56:39.531Z,53.60
2018-12-03T15:59:08.223Z,53.60
2018-12-03T16:01:36.935Z,53.60
2018-12-03T16:06:33.886Z,53.60
2018-12-03T16:09:02.662Z,53.60
2018-12-03T16:11:31.326Z,53.60
2018-12-03T16:14:00.038Z,54.10
2018-12-03T16:16:28.673Z,53.60
2018-12-03T16:18:58.013Z,54.10
2018-12-03T16:21:26.654Z,53.60
2018-12-03T16:28:51.961Z,53.60
2018-12-03T16:31:20.610Z,53.50
2018-12-03T16:33:49.269Z,53.60
2018-12-03T16:38:46.287Z,53.60
2018-12-03T16:41:14.952Z,53.60
2018-12-03T16:43:43.660Z,53.60
2018-12-03T16:46:12.331Z,53.60
2018-12-03T16:48:40.981Z,54.10
2018-12-03T16:51:09.669Z,53.60
2018-12-03T16:53:38.317Z,53.60
2018-12-03T17:01:03.586Z,53.60
2018-12-03T17:06:00.507Z,53.50
2018-12-03T17:08:29.138Z,53.60
2018-12-03T17:18:22.713Z,53.50
2018-12-03T17:20:58.819Z,53.60
2018-12-03T17:23:34.282Z,53.50
2018-12-03T17:30:59.563Z,53.50
2018-12-03T18:00:40.392Z,53.50
2018-12-03T18:05:37.310Z,53.50
2018-12-03T18:08:06.577Z,53.50
2018-12-03T18:10:35.202Z,53.50
2018-12-03T18:13:03.858Z,53.50
2018-12-03T18:15:32.518Z,53.60
2018-12-03T18:20:29.585Z,53.60
2018-12-03T18:23:01.690Z,53.60
2018-12-03T18:25:36.084Z,53.60
2018-12-03T18:28:09.743Z,53.50
2018-12-03T18:30:40.623Z,53.40
2018-12-03T18:33:13.132Z,53.40
2018-12-03T18:40:43.090Z,54.90
2018-12-03T18:43:11.966Z,55.00
2018-12-03T18:45:41.622Z,55.50
2018-12-03T18:48:14.881Z,55.10
2018-12-03T18:50:48.115Z,54.60
2018-12-03T18:55:50.848Z,54.30
2018-12-03T18:58:33.298Z,54.90
2018-12-03T19:01:01.954Z,54.70
2018-12-03T19:03:42.531Z,54.10
2018-12-03T19:08:46.386Z,54.00
2018-12-03T19:11:19.046Z,53.90
2018-12-03T19:13:59.643Z,54.50
2018-12-03T19:16:30.961Z,54.60
2018-12-03T19:19:01.210Z,54.40
2018-12-03T19:21:32.743Z,53.70
2018-12-03T19:24:02.356Z,54.30
2018-12-03T19:26:31.060Z,53.60
2018-12-03T19:28:59.708Z,53.60
2018-12-03T19:31:28.407Z,53.50
2018-12-03T19:33:57.123Z,54.00
2018-12-03T19:36:25.795Z,54.00
2018-12-03T19:38:54.501Z,53.40
2018-12-03T19:41:23.161Z,53.40
2018-12-03T19:43:51.799Z,53.90
2018-12-03T19:46:20.472Z,53.40
2018-12-03T19:48:49.176Z,54.00
2018-12-03T19:51:17.810Z,53.40
2018-12-03T19:53:46.725Z,53.50
2018-12-03T19:56:15.385Z,52.90
2018-12-03T19:58:46.905Z,53.50
2018-12-03T20:01:15.580Z,53.00
2018-12-03T20:03:44.258Z,52.10
2018-12-03T20:06:12.872Z,52.60
2018-12-03T20:08:41.542Z,51.90
2018-12-03T20:11:10.159Z,52.50
2018-12-03T20:13:38.826Z,51.80
2018-12-03T20:16:07.473Z,51.80
2018-12-03T20:18:36.152Z,51.80
2018-12-03T20:21:10.687Z,52.30
2018-12-03T20:23:42.987Z,51.90
2018-12-03T20:26:18.948Z,52.50
2018-12-03T20:28:58.163Z,52.10
2018-12-03T20:32:43.447Z,52.20
2018-12-03T20:38:06.462Z,52.10
2018-12-03T20:41:06.234Z,52.10
2018-12-03T20:43:36.451Z,52.10
2018-12-03T20:46:16.830Z,53.20
2018-12-03T20:49:01.136Z,52.00
2018-12-03T20:51:44.433Z,52.10
2018-12-03T20:54:13.094Z,52.60
2018-12-03T20:59:10.037Z,52.10
2018-12-03T21:01:42.332Z,52.60
2018-12-03T21:04:11.037Z,52.00
2018-12-03T21:06:39.757Z,52.00
2018-12-03T21:09:08.401Z,52.10
2018-12-03T21:11:37.073Z,52.10
2018-12-03T21:14:05.709Z,52.70
2018-12-03T21:16:34.331Z,52.60
2018-12-03T21:19:03.018Z,52.60
2018-12-03T21:21:31.737Z,52.60
2018-12-03T21:24:00.389Z,52.10
2018-12-03T21:26:29.030Z,52.10
2018-12-03T21:28:58.381Z,52.10
2018-12-03T21:31:27.112Z,52.70
2018-12-03T21:33:55.868Z,52.10
2018-12-03T21:36:24.515Z,52.10
2018-12-03T21:38:53.626Z,52.60
2018-12-03T21:41:22.336Z,52.60
2018-12-03T21:43:51.070Z,52.10
2018-12-03T21:46:21.113Z,52.70
2018-12-03T21:48:49.771Z,52.60
2018-12-03T21:51:18.453Z,52.60
2018-12-03T21:53:47.134Z,52.10
2018-12-03T21:56:15.755Z,52.60
2018-12-03T21:58:44.424Z,52.10
2018-12-03T22:01:13.040Z,52.60
2018-12-03T22:03:41.798Z,51.90
2018-12-03T22:06:10.484Z,52.50
2018-12-03T22:08:39.197Z,52.50
2018-12-03T22:11:07.807Z,51.90
2018-12-03T22:13:36.875Z,51.90
2018-12-03T22:16:05.521Z,51.80
2018-12-03T22:18:34.313Z,51.70
2018-12-03T22:21:03.052Z,51.70
2018-12-03T22:23:32.061Z,51.70
2018-12-03T22:28:29.070Z,51.80
2018-12-03T22:30:57.777Z,51.70
2018-12-03T22:33:26.453Z,51.80
2018-12-03T22:35:55.210Z,51.80
2018-12-03T22:38:23.877Z,51.80
2018-12-03T22:40:52.573Z,52.30
2018-12-03T22:43:21.216Z,51.50
2018-12-03T22:45:49.875Z,52.10
2018-12-03T22:48:18.555Z,51.50
2018-12-03T22:50:47.229Z,52.00
2018-12-03T22:53:15.891Z,52.00
2018-12-03T22:55:44.502Z,52.00
2018-12-03T22:58:13.735Z,51.30
2018-12-03T23:00:44.551Z,51.90
2018-12-03T23:03:13.195Z,51.40
2018-12-03T23:05:41.845Z,52.00
2018-12-03T23:08:10.579Z,52.10
2018-12-03T23:10:39.228Z,51.40
2018-12-03T23:13:07.867Z,52.00
2018-12-03T23:15:36.494Z,51.80
2018-12-03T23:18:05.172Z,51.00
2018-12-03T23:20:33.862Z,51.60
2018-12-03T23:23:02.632Z,51.50
2018-12-03T23:25:31.404Z,50.80
2018-12-03T23:28:00.646Z,50.80
2018-12-03T23:30:31.293Z,50.80
2018-12-03T23:33:00.874Z,50.90
2018-12-03T23:35:30.279Z,50.80
2018-12-03T23:37:59.379Z,51.40
2018-12-03T23:40:28.031Z,51.40
2018-12-03T23:42:56.695Z,51.40
2018-12-03T23:45:27.212Z,51.30
2018-12-03T23:47:56.255Z,51.40
2018-12-03T23:50:25.638Z,51.40
2018-12-03T23:52:54.448Z,51.10
2018-12-03T23:55:23.100Z,51.60
